Tropical Cyclones
[Index]
Main Index Home Page Stock Weather Photos Extreme Storms Discussion Storm News and Storm Chasing Reports Tropical Cyclones / Hurricanes / Typhoons Weather Data and Links Wild Fires / Bushfires Weather Observation Techniques Weather Picture Catalogue Tornado Pictures and Reports Stock Video Footage and DVDs for sale
Season 2001-2002 Tropical Cyclone BERNIE Track Map
Season 2001-2002 Summaries: [BoM-AU] [JTWC-AU] [JTWC-SIO] [JTWC-SPAC] [JTWC-SH]
<<- Previous TC | BoM 2001-2002 Season | Next TC ->>

click for intensity scale information  Lat/long Grid: Show Hide

 Date Labels: Show Hide

Bureau of Meteorology Tropical Cyclone Data

Name: BERNIE
Number: 853 / 200102_03

30 Dec 2001 21:00 UTC to 06 Jan 2002 06:00 UTC

    date/time    lat    long    hPa   cat  kts
2001-12-30 21   11.5   137.5   1006         15          
2001-12-31 00   11.7   137.5   1007         20          
2001-12-31 06   12.1   137.8   1004         20          
2001-12-31 12   12.2   137.9   1005         20          
2001-12-31 18   12.5   137.9   1003         20          
2002-01-01 00   12.7   137.9   1003         20          
2002-01-01 06   13.1   138.0   1001         25          
2002-01-01 12   13.7   138.6   1001         25          
2002-01-01 18   13.8   138.8   1001         25          
2002-01-02 00   14.2   139.2   1001         25          
2002-01-02 06   14.4   139.2    999         25          
2002-01-02 12   14.5   139.0    999         25          
2002-01-02 18   14.6   139.0    998         30          
2002-01-03 00   14.6   139.0    997         30          
2002-01-03 06   14.7   138.9    987    1    45          
2002-01-03 12   15.0   139.0    983    2    50          
2002-01-03 18   15.3   139.1    980    2    50          
2002-01-04 00   15.5   139.1    985    2    50          
2002-01-04 06   16.1   139.0    988    1    45          
2002-01-04 12   16.5   138.8    993    1    40          
2002-01-04 18   16.6   138.6    994    1    35          
2002-01-05 00   16.7   138.4    996         30          
2002-01-05 06   17.1   138.3    998         30          
2002-01-05 12   17.4   138.0   1001         25          
2002-01-05 18   17.9   137.7   1001         25          
2002-01-06 00   18.5   137.5   1003         20          
2002-01-06 06   18.8   137.4   1001         20          
Winds are 10-min average.

Tropical cyclone tracks developed by Michael Bath using data from the Bureau of Meteorology and Google Maps.


[Australian Severe Weather index] [Copyright Notice] [Email Contacts] [Search This Site] [Privacy Policy]
Document: tropical_cyclone_bernie.htm Updated: 29 June 2017